sensor_id;sensor_type;location;lat;lon;timestamp;temperature;humidity
9323;DHT22;4700;48.822;9.270;2023-03-01T02:38:40;-0.10;1.00
9323;DHT22;4700;48.822;9.270;2023-03-01T02:41:41;-0.10;1.00
9323;DHT22;4700;48.822;9.270;2023-03-01T02:54:56;0.00;1.00
9323;DHT22;4700;48.822;9.270;2023-03-01T03:10:39;0.10;1.00
9323;DHT22;4700;48.822;9.270;2023-03-01T03:33:57;0.10;1.00
9323;DHT22;4700;48.822;9.270;2023-03-01T03:44:25;0.10;1.00
9323;DHT22;4700;48.822;9.270;2023-03-01T03:49:45;0.20;1.00
9323;DHT22;4700;48.822;9.270;2023-03-01T04:07:45;0.10;1.00
9323;DHT22;4700;48.822;9.270;2023-03-01T04:10:33;0.50;1.00
9323;DHT22;4700;48.822;9.270;2023-03-01T04:18:29;0.20;1.00
9323;DHT22;4700;48.822;9.270;2023-03-01T04:21:17;0.30;1.00
9323;DHT22;4700;48.822;9.270;2023-03-01T04:24:06;0.60;1.00
9323;DHT22;4700;48.822;9.270;2023-03-01T04:26:53;0.30;1.00
9323;DHT22;4700;48.822;9.270;2023-03-01T04:29:39;0.30;1.00
9323;DHT22;4700;48.822;9.270;2023-03-01T04:32:26;0.50;1.00
9323;DHT22;4700;48.822;9.270;2023-03-01T04:35:12;0.40;1.00
9323;DHT22;4700;48.822;9.270;2023-03-01T04:37:59;0.90;1.00
9323;DHT22;4700;48.822;9.270;2023-03-01T04:40:49;0.90;1.00
9323;DHT22;4700;48.822;9.270;2023-03-01T04:43:36;1.00;1.00
9323;DHT22;4700;48.822;9.270;2023-03-01T04:46:22;0.40;1.00
9323;DHT22;4700;48.822;9.270;2023-03-01T04:49:08;0.40;1.00
9323;DHT22;4700;48.822;9.270;2023-03-01T04:51:57;0.30;1.00
9323;DHT22;4700;48.822;9.270;2023-03-01T04:54:48;0.20;1.00
9323;DHT22;4700;48.822;9.270;2023-03-01T04:57:38;0.60;1.00
9323;DHT22;4700;48.822;9.270;2023-03-01T05:00:25;0.50;1.00
9323;DHT22;4700;48.822;9.270;2023-03-01T05:03:14;1.80;1.00
9323;DHT22;4700;48.822;9.270;2023-03-01T05:06:02;0.70;1.00
9323;DHT22;4700;48.822;9.270;2023-03-01T05:08:49;0.50;1.00
9323;DHT22;4700;48.822;9.270;2023-03-01T05:17:13;0.80;1.00
9323;DHT22;4700;48.822;9.270;2023-03-01T05:19:59;0.60;1.00
9323;DHT22;4700;48.822;9.270;2023-03-01T05:22:51;0.60;1.00
9323;DHT22;4700;48.822;9.270;2023-03-01T05:25:39;0.70;1.00
9323;DHT22;4700;48.822;9.270;2023-03-01T05:28:26;0.60;1.00
9323;DHT22;4700;48.822;9.270;2023-03-01T05:34:02;0.60;1.00
9323;DHT22;4700;48.822;9.270;2023-03-01T05:39:26;0.50;1.00
9323;DHT22;4700;48.822;9.270;2023-03-01T05:42:13;0.80;1.00
9323;DHT22;4700;48.822;9.270;2023-03-01T05:45:01;0.50;1.00
9323;DHT22;4700;48.822;9.270;2023-03-01T05:47:50;0.30;1.00
9323;DHT22;4700;48.822;9.270;2023-03-01T05:50:38;0.40;1.00
9323;DHT22;4700;48.822;9.270;2023-03-01T05:53:27;0.80;1.00
9323;DHT22;4700;48.822;9.270;2023-03-01T05:56:15;0.40;1.00
9323;DHT22;4700;48.822;9.270;2023-03-01T05:59:06;0.60;1.00
9323;DHT22;4700;48.822;9.270;2023-03-01T06:01:55;0.50;1.00
9323;DHT22;4700;48.822;9.270;2023-03-01T06:04:44;0.50;1.00
9323;DHT22;4700;48.822;9.270;2023-03-01T06:07:31;0.40;1.00
9323;DHT22;4700;48.822;9.270;2023-03-01T06:10:18;0.80;1.00
9323;DHT22;4700;48.822;9.270;2023-03-01T06:13:05;0.50;1.00
9323;DHT22;4700;48.822;9.270;2023-03-01T06:15:50;0.50;1.00
9323;DHT22;4700;48.822;9.270;2023-03-01T06:23:49;0.60;1.00
9323;DHT22;4700;48.822;9.270;2023-03-01T06:26:36;0.60;1.00
9323;DHT22;4700;48.822;9.270;2023-03-01T06:31:57;0.40;1.00
9323;DHT22;4700;48.822;9.270;2023-03-01T06:37:14;0.40;1.00
9323;DHT22;4700;48.822;9.270;2023-03-01T06:40:07;0.50;1.00
9323;DHT22;4700;48.822;9.270;2023-03-01T06:43:02;0.50;1.00
9323;DHT22;4700;48.822;9.270;2023-03-01T06:45:48;0.30;1.00
9323;DHT22;4700;48.822;9.270;2023-03-01T07:21:52;0.20;1.00
9323;DHT22;4700;48.822;9.270;2023-03-01T07:37:28;0.30;1.00
9323;DHT22;4700;48.822;9.270;2023-03-01T07:55:37;0.90;1.00
9323;DHT22;4700;48.822;9.270;2023-03-01T07:58:24;1.00;1.00
9323;DHT22;4700;48.822;9.270;2023-03-01T08:01:13;1.10;1.00
9323;DHT22;4700;48.822;9.270;2023-03-01T08:04:01;1.30;1.00
9323;DHT22;4700;48.822;9.270;2023-03-01T08:06:49;1.60;1.00
9323;DHT22;4700;48.822;9.270;2023-03-01T08:09:37;1.30;1.00
9323;DHT22;4700;48.822;9.270;2023-03-01T08:12:25;1.30;1.00
9323;DHT22;4700;48.822;9.270;2023-03-01T08:15:12;1.40;1.00
9323;DHT22;4700;48.822;9.270;2023-03-01T08:18:02;1.20;1.00
9323;DHT22;4700;48.822;9.270;2023-03-01T08:23:37;2.90;1.00
9323;DHT22;4700;48.822;9.270;2023-03-01T08:26:23;4.60;1.00
9323;DHT22;4700;48.822;9.270;2023-03-01T08:29:10;7.50;1.00
9323;DHT22;4700;48.822;9.270;2023-03-01T08:31:56;8.30;1.00
9323;DHT22;4700;48.822;9.270;2023-03-01T08:34:44;11.40;1.00
9323;DHT22;4700;48.822;9.270;2023-03-01T08:37:31;12.50;1.00
9323;DHT22;4700;48.822;9.270;2023-03-01T08:40:17;11.70;1.00
9323;DHT22;4700;48.822;9.270;2023-03-01T08:43:05;13.40;1.00
9323;DHT22;4700;48.822;9.270;2023-03-01T08:45:52;13.80;1.00
9323;DHT22;4700;48.822;9.270;2023-03-01T08:48:38;13.40;1.00
9323;DHT22;4700;48.822;9.270;2023-03-01T08:51:27;13.90;1.00
9323;DHT22;4700;48.822;9.270;2023-03-01T08:54:16;14.90;1.00
9323;DHT22;4700;48.822;9.270;2023-03-01T08:57:03;16.60;1.00
9323;DHT22;4700;48.822;9.270;2023-03-01T08:59:49;17.20;1.00
9323;DHT22;4700;48.822;9.270;2023-03-01T09:02:36;17.70;1.00
9323;DHT22;4700;48.822;9.270;2023-03-01T09:05:24;14.90;1.00
9323;DHT22;4700;48.822;9.270;2023-03-01T09:08:10;16.30;1.00
9323;DHT22;4700;48.822;9.270;2023-03-01T09:10:58;17.40;1.00
9323;DHT22;4700;48.822;9.270;2023-03-01T09:13:49;16.70;1.00
9323;DHT22;4700;48.822;9.270;2023-03-01T09:16:35;14.50;1.00
9323;DHT22;4700;48.822;9.270;2023-03-01T09:19:23;16.00;1.00
9323;DHT22;4700;48.822;9.270;2023-03-01T09:24:42;17.90;1.00
9323;DHT22;4700;48.822;9.270;2023-03-01T09:27:27;16.80;1.00
9323;DHT22;4700;48.822;9.270;2023-03-01T09:30:14;16.40;1.00
9323;DHT22;4700;48.822;9.270;2023-03-01T09:32:59;17.40;1.00
9323;DHT22;4700;48.822;9.270;2023-03-01T09:35:48;17.00;1.00
9323;DHT22;4700;48.822;9.270;2023-03-01T09:38:34;17.50;1.00
9323;DHT22;4700;48.822;9.270;2023-03-01T09:41:43;16.70;1.00
9323;DHT22;4700;48.822;9.270;2023-03-01T09:44:38;18.10;1.00
9323;DHT22;4700;48.822;9.270;2023-03-01T09:47:27;16.10;1.00
9323;DHT22;4700;48.822;9.270;2023-03-01T09:50:16;12.00;1.00
9323;DHT22;4700;48.822;9.270;2023-03-01T09:53:05;8.80;1.00
9323;DHT22;4700;48.822;9.270;2023-03-01T09:55:56;6.80;1.00
9323;DHT22;4700;48.822;9.270;2023-03-01T09:58:49;5.70;1.00
9323;DHT22;4700;48.822;9.270;2023-03-01T10:01:43;5.10;1.00
9323;DHT22;4700;48.822;9.270;2023-03-01T10:04:41;4.90;1.00
9323;DHT22;4700;48.822;9.270;2023-03-01T10:07:36;4.80;1.00
9323;DHT22;4700;48.822;9.270;2023-03-01T10:10:34;4.60;1.00
9323;DHT22;4700;48.822;9.270;2023-03-01T10:15:59;4.60;1.00
9323;DHT22;4700;48.822;9.270;2023-03-01T10:18:53;4.60;1.00
9323;DHT22;4700;48.822;9.270;2023-03-01T10:21:44;4.90;1.00
9323;DHT22;4700;48.822;9.270;2023-03-01T10:24:34;4.60;1.00
9323;DHT22;4700;48.822;9.270;2023-03-01T10:27:23;4.50;1.00
9323;DHT22;4700;48.822;9.270;2023-03-01T10:30:17;4.70;1.00
9323;DHT22;4700;48.822;9.270;2023-03-01T10:33:13;4.60;1.00
9323;DHT22;4700;48.822;9.270;2023-03-01T10:36:02;4.80;1.00
9323;DHT22;4700;48.822;9.270;2023-03-01T10:38:51;4.90;1.00
9323;DHT22;4700;48.822;9.270;2023-03-01T10:41:52;4.80;1.00
9323;DHT22;4700;48.822;9.270;2023-03-01T10:44:44;4.70;1.00
9323;DHT22;4700;48.822;9.270;2023-03-01T10:47:34;4.80;1.00
9323;DHT22;4700;48.822;9.270;2023-03-01T10:50:22;5.20;1.00
9323;DHT22;4700;48.822;9.270;2023-03-01T10:53:24;5.50;1.00
9323;DHT22;4700;48.822;9.270;2023-03-01T10:56:12;5.40;1.00
9323;DHT22;4700;48.822;9.270;2023-03-01T10:59:00;5.30;1.00
9323;DHT22;4700;48.822;9.270;2023-03-01T11:02:02;5.40;1.00
9323;DHT22;4700;48.822;9.270;2023-03-01T11:04:59;5.70;1.00
9323;DHT22;4700;48.822;9.270;2023-03-01T11:07:50;5.60;1.00
9323;DHT22;4700;48.822;9.270;2023-03-01T11:10:36;6.00;1.00
9323;DHT22;4700;48.822;9.270;2023-03-01T11:13:22;6.30;1.00
9323;DHT22;4700;48.822;9.270;2023-03-01T11:16:12;5.90;1.00
9323;DHT22;4700;48.822;9.270;2023-03-01T11:19:14;5.70;1.00
9323;DHT22;4700;48.822;9.270;2023-03-01T11:22:03;5.50;1.00
9323;DHT22;4700;48.822;9.270;2023-03-01T11:24:53;5.50;1.00
9323;DHT22;4700;48.822;9.270;2023-03-01T11:27:43;5.40;1.00
9323;DHT22;4700;48.822;9.270;2023-03-01T11:30:34;5.50;1.00
9323;DHT22;4700;48.822;9.270;2023-03-01T11:33:33;5.70;1.00
9323;DHT22;4700;48.822;9.270;2023-03-01T11:36:26;5.90;1.00
9323;DHT22;4700;48.822;9.270;2023-03-01T11:39:22;6.10;1.00
9323;DHT22;4700;48.822;9.270;2023-03-01T11:42:14;6.10;1.00
9323;DHT22;4700;48.822;9.270;2023-03-01T11:45:08;6.10;1.00
9323;DHT22;4700;48.822;9.270;2023-03-01T11:48:05;6.10;1.00
9323;DHT22;4700;48.822;9.270;2023-03-01T11:50:55;6.20;1.00
9323;DHT22;4700;48.822;9.270;2023-03-01T11:54:04;6.10;1.00
9323;DHT22;4700;48.822;9.270;2023-03-01T11:56:55;6.30;1.00
9323;DHT22;4700;48.822;9.270;2023-03-01T12:00:13;6.30;1.00
9323;DHT22;4700;48.822;9.270;2023-03-01T12:06:43;6.40;1.00
9323;DHT22;4700;48.822;9.270;2023-03-01T12:09:44;6.40;1.00
9323;DHT22;4700;48.822;9.270;2023-03-01T12:12:47;6.50;1.00
9323;DHT22;4700;48.822;9.270;2023-03-01T12:19:06;6.40;1.00
9323;DHT22;4700;48.822;9.270;2023-03-01T12:22:13;6.60;1.00
9323;DHT22;4700;48.822;9.270;2023-03-01T12:25:19;6.50;1.00
9323;DHT22;4700;48.822;9.270;2023-03-01T12:28:31;6.60;1.00
9323;DHT22;4700;48.822;9.270;2023-03-01T12:34:57;6.80;1.00
9323;DHT22;4700;48.822;9.270;2023-03-01T12:37:54;6.70;1.00
9323;DHT22;4700;48.822;9.270;2023-03-01T12:41:18;6.90;1.00
9323;DHT22;4700;48.822;9.270;2023-03-01T12:44:15;6.90;1.00
9323;DHT22;4700;48.822;9.270;2023-03-01T12:47:18;7.00;1.00
9323;DHT22;4700;48.822;9.270;2023-03-01T12:50:12;7.00;1.00
9323;DHT22;4700;48.822;9.270;2023-03-01T12:52:59;7.10;1.00
9323;DHT22;4700;48.822;9.270;2023-03-01T12:55:45;7.20;1.00
9323;DHT22;4700;48.822;9.270;2023-03-01T12:58:39;7.00;1.00
9323;DHT22;4700;48.822;9.270;2023-03-01T13:01:35;7.30;1.00
9323;DHT22;4700;48.822;9.270;2023-03-01T13:04:33;7.20;1.00
9323;DHT22;4700;48.822;9.270;2023-03-01T13:07:27;7.20;1.00
9323;DHT22;4700;48.822;9.270;2023-03-01T13:10:21;7.40;1.00
9323;DHT22;4700;48.822;9.270;2023-03-01T13:13:19;7.40;1.00
9323;DHT22;4700;48.822;9.270;2023-03-01T13:16:39;7.60;1.00
9323;DHT22;4700;48.822;9.270;2023-03-01T13:19:28;7.60;1.00
9323;DHT22;4700;48.822;9.270;2023-03-01T13:22:29;7.60;1.00
9323;DHT22;4700;48.822;9.270;2023-03-01T13:25:18;7.60;1.00
9323;DHT22;4700;48.822;9.270;2023-03-01T13:28:36;7.70;1.00
9323;DHT22;4700;48.822;9.270;2023-03-01T13:31:59;7.70;1.00
9323;DHT22;4700;48.822;9.270;2023-03-01T13:34:51;7.70;1.00
9323;DHT22;4700;48.822;9.270;2023-03-01T13:37:37;7.60;1.00
9323;DHT22;4700;48.822;9.270;2023-03-01T13:40:58;7.60;1.00
9323;DHT22;4700;48.822;9.270;2023-03-01T13:43:46;7.50;1.00
9323;DHT22;4700;48.822;9.270;2023-03-01T13:46:33;7.60;1.00
9323;DHT22;4700;48.822;9.270;2023-03-01T13:49:25;7.60;1.00
9323;DHT22;4700;48.822;9.270;2023-03-01T13:52:37;7.60;1.00
9323;DHT22;4700;48.822;9.270;2023-03-01T13:55:36;7.00;1.00
9323;DHT22;4700;48.822;9.270;2023-03-01T13:58:24;7.60;1.00
9323;DHT22;4700;48.822;9.270;2023-03-01T14:01:21;7.60;1.00
9323;DHT22;4700;48.822;9.270;2023-03-01T14:04:23;7.40;1.00
9323;DHT22;4700;48.822;9.270;2023-03-01T14:07:11;7.50;1.00
9323;DHT22;4700;48.822;9.270;2023-03-01T14:10:01;7.40;1.00
9323;DHT22;4700;48.822;9.270;2023-03-01T14:12:51;7.50;1.00
9323;DHT22;4700;48.822;9.270;2023-03-01T14:15:43;7.60;1.00
9323;DHT22;4700;48.822;9.270;2023-03-01T14:18:34;7.60;1.00
9323;DHT22;4700;48.822;9.270;2023-03-01T14:21:23;7.60;1.00
9323;DHT22;4700;48.822;9.270;2023-03-01T14:24:18;7.30;1.00
9323;DHT22;4700;48.822;9.270;2023-03-01T14:27:11;5.70;1.00
9323;DHT22;4700;48.822;9.270;2023-03-01T14:29:59;7.40;1.00
9323;DHT22;4700;48.822;9.270;2023-03-01T14:32:52;7.40;1.00
9323;DHT22;4700;48.822;9.270;2023-03-01T14:35:38;7.40;1.00
9323;DHT22;4700;48.822;9.270;2023-03-01T14:38:32;7.50;1.00
9323;DHT22;4700;48.822;9.270;2023-03-01T14:41:20;7.70;1.00
9323;DHT22;4700;48.822;9.270;2023-03-01T14:44:14;7.60;1.00
9323;DHT22;4700;48.822;9.270;2023-03-01T14:47:02;7.70;1.00
9323;DHT22;4700;48.822;9.270;2023-03-01T14:49:51;9.20;1.00
9323;DHT22;4700;48.822;9.270;2023-03-01T14:52:42;7.70;1.00
9323;DHT22;4700;48.822;9.270;2023-03-01T14:55:33;7.50;1.00
9323;DHT22;4700;48.822;9.270;2023-03-01T14:58:22;7.40;1.00
9323;DHT22;4700;48.822;9.270;2023-03-01T15:01:14;7.50;1.00
9323;DHT22;4700;48.822;9.270;2023-03-01T15:04:04;7.60;1.00
9323;DHT22;4700;48.822;9.270;2023-03-01T15:06:51;7.50;1.00
9323;DHT22;4700;48.822;9.270;2023-03-01T15:09:39;7.50;1.00
9323;DHT22;4700;48.822;9.270;2023-03-01T15:12:37;7.60;1.00
9323;DHT22;4700;48.822;9.270;2023-03-01T15:15:35;7.40;1.00
9323;DHT22;4700;48.822;9.270;2023-03-01T15:18:25;7.50;1.00
9323;DHT22;4700;48.822;9.270;2023-03-01T15:21:17;7.40;1.00
9323;DHT22;4700;48.822;9.270;2023-03-01T15:24:06;7.40;1.00
9323;DHT22;4700;48.822;9.270;2023-03-01T15:27:03;7.40;1.00
9323;DHT22;4700;48.822;9.270;2023-03-01T15:29:56;7.30;1.00
9323;DHT22;4700;48.822;9.270;2023-03-01T15:32:43;7.40;1.00
9323;DHT22;4700;48.822;9.270;2023-03-01T15:35:42;7.30;1.00
9323;DHT22;4700;48.822;9.270;2023-03-01T15:38:32;7.30;1.00
9323;DHT22;4700;48.822;9.270;2023-03-01T15:41:24;7.30;1.00
9323;DHT22;4700;48.822;9.270;2023-03-01T15:44:18;7.20;1.00
9323;DHT22;4700;48.822;9.270;2023-03-01T15:47:27;7.20;1.00
9323;DHT22;4700;48.822;9.270;2023-03-01T15:50:18;7.20;1.00
9323;DHT22;4700;48.822;9.270;2023-03-01T15:53:07;7.10;1.00
9323;DHT22;4700;48.822;9.270;2023-03-01T15:55:55;6.80;1.00
9323;DHT22;4700;48.822;9.270;2023-03-01T15:58:41;7.00;1.00
9323;DHT22;4700;48.822;9.270;2023-03-01T16:01:27;7.00;1.00
9323;DHT22;4700;48.822;9.270;2023-03-01T16:04:18;7.00;1.00
9323;DHT22;4700;48.822;9.270;2023-03-01T16:07:08;7.00;1.00
9323;DHT22;4700;48.822;9.270;2023-03-01T16:09:54;7.10;1.00
9323;DHT22;4700;48.822;9.270;2023-03-01T16:12:40;7.00;1.00
9323;DHT22;4700;48.822;9.270;2023-03-01T16:15:27;6.90;1.00
9323;DHT22;4700;48.822;9.270;2023-03-01T16:18:13;6.90;1.00
9323;DHT22;4700;48.822;9.270;2023-03-01T16:21:00;6.80;1.00
9323;DHT22;4700;48.822;9.270;2023-03-01T16:23:46;6.80;1.00
9323;DHT22;4700;48.822;9.270;2023-03-01T16:26:32;6.90;1.00
9323;DHT22;4700;48.822;9.270;2023-03-01T16:29:18;6.90;1.00
9323;DHT22;4700;48.822;9.270;2023-03-01T16:32:04;6.80;1.00
9323;DHT22;4700;48.822;9.270;2023-03-01T16:34:50;6.70;1.00
9323;DHT22;4700;48.822;9.270;2023-03-01T16:37:37;6.70;1.00
9323;DHT22;4700;48.822;9.270;2023-03-01T16:40:25;6.50;1.00
9323;DHT22;4700;48.822;9.270;2023-03-01T16:43:11;6.50;1.00
9323;DHT22;4700;48.822;9.270;2023-03-01T16:45:57;6.30;1.00
9323;DHT22;4700;48.822;9.270;2023-03-01T16:48:44;6.40;1.00
9323;DHT22;4700;48.822;9.270;2023-03-01T16:51:30;6.40;1.00
9323;DHT22;4700;48.822;9.270;2023-03-01T16:54:20;6.20;1.00
9323;DHT22;4700;48.822;9.270;2023-03-01T16:57:06;6.10;1.00
9323;DHT22;4700;48.822;9.270;2023-03-01T16:59:52;6.10;1.00
9323;DHT22;4700;48.822;9.270;2023-03-01T17:02:39;5.90;1.00
9323;DHT22;4700;48.822;9.270;2023-03-01T17:05:25;5.90;1.00
9323;DHT22;4700;48.822;9.270;2023-03-01T17:08:11;5.70;1.00
9323;DHT22;4700;48.822;9.270;2023-03-01T17:11:05;5.80;1.00
9323;DHT22;4700;48.822;9.270;2023-03-01T17:13:51;5.80;1.00
9323;DHT22;4700;48.822;9.270;2023-03-01T17:16:37;5.50;1.00
9323;DHT22;4700;48.822;9.270;2023-03-01T17:19:23;5.50;1.00
9323;DHT22;4700;48.822;9.270;2023-03-01T17:22:09;5.60;1.00
9323;DHT22;4700;48.822;9.270;2023-03-01T17:24:57;5.40;1.00
9323;DHT22;4700;48.822;9.270;2023-03-01T17:27:44;6.60;1.00
9323;DHT22;4700;48.822;9.270;2023-03-01T17:30:30;4.70;1.00
9323;DHT22;4700;48.822;9.270;2023-03-01T17:33:17;5.10;1.00
9323;DHT22;4700;48.822;9.270;2023-03-01T17:36:04;5.50;1.00
9323;DHT22;4700;48.822;9.270;2023-03-01T17:38:51;5.00;1.00
9323;DHT22;4700;48.822;9.270;2023-03-01T17:41:37;5.00;1.00
9323;DHT22;4700;48.822;9.270;2023-03-01T17:44:24;5.00;1.00
9323;DHT22;4700;48.822;9.270;2023-03-01T17:47:10;4.90;1.00
9323;DHT22;4700;48.822;9.270;2023-03-01T17:49:56;4.80;1.00
9323;DHT22;4700;48.822;9.270;2023-03-01T17:52:42;4.60;1.00
9323;DHT22;4700;48.822;9.270;2023-03-01T17:57:59;4.60;1.00
9323;DHT22;4700;48.822;9.270;2023-03-01T18:00:48;4.50;1.00
9323;DHT22;4700;48.822;9.270;2023-03-01T18:03:35;4.60;1.00
9323;DHT22;4700;48.822;9.270;2023-03-01T18:06:23;4.60;1.00
9323;DHT22;4700;48.822;9.270;2023-03-01T18:09:09;4.50;1.00
9323;DHT22;4700;48.822;9.270;2023-03-01T18:11:55;4.30;1.00
9323;DHT22;4700;48.822;9.270;2023-03-01T18:14:42;4.60;1.00
9323;DHT22;4700;48.822;9.270;2023-03-01T18:17:29;4.50;1.00
9323;DHT22;4700;48.822;9.270;2023-03-01T18:23:02;4.80;1.00
9323;DHT22;4700;48.822;9.270;2023-03-01T18:25:50;4.50;1.00
9323;DHT22;4700;48.822;9.270;2023-03-01T18:28:39;4.40;1.00
9323;DHT22;4700;48.822;9.270;2023-03-01T18:31:25;4.60;1.00
9323;DHT22;4700;48.822;9.270;2023-03-01T18:34:13;4.50;1.00
9323;DHT22;4700;48.822;9.270;2023-03-01T18:36:59;4.20;1.00
9323;DHT22;4700;48.822;9.270;2023-03-01T18:39:45;4.20;1.00
9323;DHT22;4700;48.822;9.270;2023-03-01T18:42:31;4.10;1.00
9323;DHT22;4700;48.822;9.270;2023-03-01T18:47:47;3.90;1.00
9323;DHT22;4700;48.822;9.270;2023-03-01T18:53:07;3.70;1.00
9323;DHT22;4700;48.822;9.270;2023-03-01T18:55:58;3.60;1.00
9323;DHT22;4700;48.822;9.270;2023-03-01T19:01:16;6.00;1.00
9323;DHT22;4700;48.822;9.270;2023-03-01T19:06:50;3.30;1.00
9323;DHT22;4700;48.822;9.270;2023-03-01T19:09:39;3.20;1.00
9323;DHT22;4700;48.822;9.270;2023-03-01T19:17:31;3.00;1.00
9323;DHT22;4700;48.822;9.270;2023-03-01T20:27:30;3.20;1.00
9323;DHT22;4700;48.822;9.270;2023-03-01T20:30:17;3.10;1.00
9323;DHT22;4700;48.822;9.270;2023-03-01T20:33:03;3.10;1.00
9323;DHT22;4700;48.822;9.270;2023-03-01T20:38:36;3.40;1.00
